createdAt,value
2019-04-22T00:02:11.897Z,100403.64
2019-04-22T00:04:52.532Z,100407.11
2019-04-22T00:07:36.197Z,100401.36
2019-04-22T00:10:09.186Z,100399.60
2019-04-22T00:12:45.505Z,100398.41
2019-04-22T00:15:03.728Z,100400.41
2019-04-22T00:20:10.159Z,100389.41
2019-04-22T00:22:40.208Z,100389.92
2019-04-22T00:25:11.845Z,100388.16
2019-04-22T00:27:41.478Z,100378.51
2019-04-22T00:32:45.084Z,100380.08
2019-04-22T00:35:14.758Z,100380.73
2019-04-22T00:37:54.842Z,100372.73
2019-04-22T00:40:23.829Z,100366.78
2019-04-22T00:42:47.184Z,100361.55
2019-04-22T00:45:19.363Z,100372.09
2019-04-22T00:47:44.834Z,100372.37
2019-04-22T00:52:50.816Z,100365.20
2019-04-22T00:55:22.002Z,100365.52
2019-04-22T00:57:54.196Z,100364.08
2019-04-22T01:00:24.736Z,100359.84
2019-04-22T01:02:54.404Z,100359.41
2019-04-22T01:05:28.899Z,100359.81
2019-04-22T01:08:04.075Z,100353.88
2019-04-22T01:10:27.445Z,100353.67
2019-04-22T01:12:49.921Z,100350.77
2019-04-22T01:15:30.503Z,100345.30
2019-04-22T01:18:00.136Z,100349.83
2019-04-22T01:22:59.054Z,100346.44
2019-04-22T01:25:24.442Z,100341.70
2019-04-22T01:27:54.420Z,100343.66
2019-04-22T01:30:22.154Z,100336.23
2019-04-22T01:32:44.870Z,100331.14
2019-04-22T01:35:26.297Z,100336.52
2019-04-22T01:37:54.676Z,100328.23
2019-04-22T01:40:39.362Z,100323.88
2019-04-22T01:43:07.336Z,100321.95
2019-04-22T01:45:39.408Z,100323.08
2019-04-22T01:48:10.529Z,100320.66
2019-04-22T01:50:38.483Z,100314.83
2019-04-22T01:53:27.370Z,100315.22
2019-04-22T01:58:08.410Z,100315.22
2019-04-22T02:00:49.436Z,100316.95
2019-04-22T02:03:14.100Z,100307.97
2019-04-22T02:05:43.846Z,100307.17
2019-04-22T02:08:25.576Z,100303.56
2019-04-22T02:10:53.079Z,100302.13
2019-04-22T02:13:15.284Z,100304.25
2019-04-22T02:15:48.019Z,100296.58
2019-04-22T02:18:23.158Z,100290.51
2019-04-22T02:20:42.939Z,100288.95
2019-04-22T02:26:02.447Z,100291.14
2019-04-22T02:28:36.626Z,100285.78
2019-04-22T02:31:23.108Z,100287.13
2019-04-22T02:38:57.419Z,100285.45
2019-04-22T02:43:56.910Z,100279.88
2019-04-22T02:48:53.819Z,100272.83
2019-04-22T02:56:22.959Z,100268.00
2019-04-22T03:01:27.498Z,100260.11
2019-04-22T03:08:51.236Z,100262.88
2019-04-22T03:11:25.222Z,100263.52
2019-04-22T03:13:56.826Z,100258.78
2019-04-22T03:23:58.646Z,100246.80
2019-04-22T03:32:03.948Z,100241.11
2019-04-22T03:34:42.225Z,100241.38
2019-04-22T03:37:04.408Z,100234.11
2019-04-22T03:39:20.352Z,100235.72
2019-04-22T03:42:03.550Z,100228.16
2019-04-22T03:44:20.738Z,100234.64
2019-04-22T03:46:30.384Z,100225.89
2019-04-22T03:49:17.430Z,100225.89
2019-04-22T03:54:17.481Z,100221.39
2019-04-22T03:57:07.215Z,100230.43
2019-04-22T03:59:22.125Z,100227.52
2019-04-22T04:04:18.643Z,100221.83
2019-04-22T04:06:54.608Z,100223.80
2019-04-22T04:09:14.345Z,100219.07
2019-04-22T04:11:55.822Z,100217.36
2019-04-22T04:14:18.225Z,100216.28
2019-04-22T04:29:27.952Z,100206.48
2019-04-22T04:31:40.980Z,100202.55
2019-04-22T04:34:19.675Z,100203.89
2019-04-22T04:36:55.277Z,100204.03
2019-04-22T04:41:51.892Z,100199.53
2019-04-22T04:44:48.300Z,100205.59
2019-04-22T04:46:51.759Z,100205.48
2019-04-22T04:49:19.411Z,100200.98
2019-04-22T04:54:21.411Z,100202.92
2019-04-22T05:06:51.690Z,100205.05
2019-04-22T05:12:19.513Z,100199.98
2019-04-22T05:14:24.599Z,100207.88
2019-04-22T05:19:24.053Z,100197.34
2019-04-22T05:21:53.471Z,100199.97
2019-04-22T05:24:22.780Z,100199.45
2019-04-22T05:26:58.691Z,100195.23
2019-04-22T05:29:19.722Z,100201.25
2019-04-22T05:31:51.765Z,100198.86
2019-04-22T05:34:26.430Z,100187.95
2019-04-22T05:39:17.140Z,100189.12
2019-04-22T05:41:48.731Z,100186.06
2019-04-22T05:44:24.582Z,100186.44
2019-04-22T05:46:49.912Z,100185.69
2019-04-22T05:49:23.799Z,100184.54
2019-04-22T05:51:48.138Z,100182.54
2019-04-22T05:54:25.241Z,100178.55
2019-04-22T05:56:42.896Z,100173.09
2019-04-22T05:59:24.358Z,100177.37
2019-04-22T06:01:59.712Z,100175.30
2019-04-22T06:04:23.619Z,100165.79
2019-04-22T06:06:53.852Z,100168.16
2019-04-22T06:09:28.785Z,100166.77
2019-04-22T06:11:58.892Z,100165.47
2019-04-22T06:14:30.844Z,100167.02
2019-04-22T06:17:11.079Z,100162.70
2019-04-22T06:19:44.911Z,100165.44
2019-04-22T06:22:26.841Z,100164.77
2019-04-22T06:24:43.760Z,100163.88
2019-04-22T06:27:21.994Z,100164.47
2019-04-22T06:29:41.764Z,100167.83
2019-04-22T06:34:48.736Z,100167.83
2019-04-22T06:37:17.475Z,100162.09
2019-04-22T06:39:44.873Z,100165.17
2019-04-22T06:42:21.534Z,100168.77
2019-04-22T06:44:51.597Z,100170.31
2019-04-22T06:47:28.673Z,100172.73
2019-04-22T06:49:53.078Z,100169.55
2019-04-22T06:52:19.685Z,100170.77
2019-04-22T06:54:57.442Z,100166.71
2019-04-22T06:57:24.248Z,100168.92
2019-04-22T06:59:52.009Z,100169.62
2019-04-22T07:02:36.094Z,100164.40
2019-04-22T07:04:59.581Z,100161.60
2019-04-22T07:07:25.199Z,100166.02
2019-04-22T07:10:11.685Z,100158.05
2019-04-22T07:12:31.931Z,100158.02
2019-04-22T07:15:16.195Z,100154.35
2019-04-22T07:17:44.046Z,100156.16
2019-04-22T07:20:13.987Z,100157.86
2019-04-22T07:22:43.648Z,100154.52
2019-04-22T07:25:10.483Z,100156.06
2019-04-22T07:27:45.793Z,100158.95
2019-04-22T07:33:04.242Z,100160.64
2019-04-22T07:35:23.906Z,100155.12
2019-04-22T07:37:48.573Z,100152.21
2019-04-22T07:40:27.035Z,100156.41
2019-04-22T07:42:59.206Z,100154.88
2019-04-22T07:45:29.556Z,100153.28
2019-04-22T07:48:09.580Z,100149.66
2019-04-22T07:50:43.005Z,100148.01
2019-04-22T07:52:58.104Z,100149.56
2019-04-22T07:55:32.587Z,100142.42
2019-04-22T07:58:07.851Z,100140.53
2019-04-22T08:00:34.131Z,100142.60
2019-04-22T08:03:14.583Z,100137.58
2019-04-22T08:05:47.599Z,100135.56
2019-04-22T08:08:16.068Z,100136.63
2019-04-22T08:10:43.069Z,100140.59
2019-04-22T08:13:11.861Z,100141.23
2019-04-22T08:15:45.457Z,100134.85
2019-04-22T08:18:27.668Z,100132.64
2019-04-22T08:20:41.011Z,100129.93
2019-04-22T08:23:16.390Z,100134.02
2019-04-22T08:25:42.615Z,100131.52
2019-04-22T08:28:23.606Z,100130.28
2019-04-22T08:30:47.732Z,100126.95
2019-04-22T08:33:23.313Z,100130.50
2019-04-22T08:36:04.268Z,100125.70
2019-04-22T08:38:14.893Z,100127.12
2019-04-22T08:41:23.151Z,100120.24
2019-04-22T08:43:55.873Z,100113.92
2019-04-22T08:46:24.139Z,100113.01
2019-04-22T08:48:52.864Z,100103.16
2019-04-22T08:51:21.073Z,100100.28
2019-04-22T08:53:56.178Z,100107.08
2019-04-22T08:58:51.098Z,100106.34
2019-04-22T09:01:17.727Z,100104.34
2019-04-22T09:03:52.681Z,100103.52
2019-04-22T09:06:34.155Z,100096.50
2019-04-22T09:11:26.978Z,100088.34
2019-04-22T09:13:55.862Z,100086.17
2019-04-22T09:16:33.272Z,100087.42
2019-04-22T09:24:00.429Z,100080.41
2019-04-22T09:26:34.066Z,100077.50
2019-04-22T09:29:00.838Z,100073.57
2019-04-22T09:31:23.802Z,100071.34
2019-04-22T09:33:54.307Z,100072.91
2019-04-22T09:36:34.011Z,100068.17
2019-04-22T09:39:19.469Z,100064.94
2019-04-22T09:41:36.764Z,100066.36
2019-04-22T09:44:02.597Z,100062.23
2019-04-22T09:46:34.565Z,100057.72
2019-04-22T09:49:06.938Z,100062.90
2019-04-22T09:51:30.769Z,100051.94
2019-04-22T09:54:08.888Z,100041.81
2019-04-22T09:56:31.574Z,100047.91
2019-04-22T09:59:02.155Z,100029.78
2019-04-22T10:04:00.978Z,100020.41
2019-04-22T10:06:35.428Z,100023.33
2019-04-22T10:09:29.862Z,100018.94
2019-04-22T10:14:05.766Z,100016.59
2019-04-22T10:19:04.672Z,100007.94
2019-04-22T10:21:40.593Z,99999.02
2019-04-22T10:26:39.824Z,99984.90
2019-04-22T10:31:37.049Z,99983.03
2019-04-22T10:33:58.811Z,99984.69
2019-04-22T10:36:13.157Z,99978.03
2019-04-22T10:38:42.232Z,99967.72
2019-04-22T10:41:12.227Z,99977.63
2019-04-22T10:43:41.302Z,99954.28
2019-04-22T10:46:10.528Z,99954.40
2019-04-22T10:48:40.125Z,99953.44
2019-04-22T10:51:08.909Z,99945.29
2019-04-22T10:53:37.589Z,99944.52
2019-04-22T10:56:07.192Z,99940.91
2019-04-22T10:58:35.823Z,99937.69
2019-04-22T11:01:05.324Z,99929.64
2019-04-22T11:03:35.246Z,99925.22
2019-04-22T11:06:05.497Z,99925.91
2019-04-22T11:08:44.457Z,99923.63
2019-04-22T11:11:18.931Z,99921.94
2019-04-22T11:13:35.952Z,99917.55
2019-04-22T11:16:05.466Z,99920.20
2019-04-22T11:18:35.681Z,99905.75
2019-04-22T11:21:05.410Z,99917.02
2019-04-22T11:23:34.431Z,99905.40
2019-04-22T11:26:03.916Z,99901.50
2019-04-22T11:28:33.886Z,99898.28
2019-04-22T11:31:02.782Z,99892.34
2019-04-22T11:33:32.266Z,99884.58
2019-04-22T11:36:01.978Z,99889.28
2019-04-22T11:38:31.022Z,99884.34
2019-04-22T11:41:01.385Z,99877.94
2019-04-22T11:43:30.472Z,99880.89
2019-04-22T11:45:59.559Z,99876.23
2019-04-22T11:48:29.195Z,99874.30
2019-04-22T11:50:58.033Z,99867.98
2019-04-22T11:53:27.048Z,99864.99
2019-04-22T11:55:55.684Z,99860.97
2019-04-22T11:58:24.684Z,99855.72
2019-04-22T12:00:55.164Z,99841.56
2019-04-22T12:03:25.128Z,99846.75
2019-04-22T12:05:55.454Z,99844.24
2019-04-22T12:08:25.020Z,99839.25
2019-04-22T12:10:58.277Z,99843.95
2019-04-22T12:13:26.024Z,99836.91
2019-04-22T12:15:55.466Z,99833.50
2019-04-22T12:18:24.909Z,99835.77
2019-04-22T12:20:55.216Z,99823.86
2019-04-22T12:23:25.153Z,99832.77
2019-04-22T12:26:02.090Z,99818.73
2019-04-22T12:28:24.723Z,99818.44
2019-04-22T12:30:53.586Z,99816.13
2019-04-22T12:33:23.462Z,99811.36
2019-04-22T12:35:52.778Z,99811.61
2019-04-22T12:38:24.074Z,99809.71
2019-04-22T12:40:58.508Z,99809.59
2019-04-22T12:43:25.696Z,99797.58
2019-04-22T12:45:54.321Z,99801.39
2019-04-22T12:48:23.270Z,99791.64
2019-04-22T12:50:54.342Z,99785.58
2019-04-22T12:53:25.712Z,99779.70
2019-04-22T12:55:55.155Z,99774.30
2019-04-22T12:58:23.462Z,99777.43
2019-04-22T13:00:52.828Z,99769.00
2019-04-22T13:03:22.333Z,99770.19
2019-04-22T13:05:51.480Z,99764.06
2019-04-22T13:08:20.151Z,99772.34
2019-04-22T13:10:55.560Z,99750.41
2019-04-22T13:13:19.067Z,99753.17
2019-04-22T13:15:48.943Z,99746.45
2019-04-22T13:18:27.643Z,99738.75
2019-04-22T13:20:48.669Z,99732.09
2019-04-22T13:23:18.105Z,99740.66
2019-04-22T13:25:47.155Z,99733.25
2019-04-22T13:28:15.878Z,99752.56
2019-04-22T13:30:44.469Z,99725.28
2019-04-22T13:33:14.670Z,99729.34
2019-04-22T13:35:45.677Z,99726.31
2019-04-22T13:38:15.186Z,99719.94
2019-04-22T13:41:00.640Z,99717.17
2019-04-22T13:43:16.483Z,99718.69
2019-04-22T13:45:47.739Z,99712.66
2019-04-22T13:48:33.138Z,99706.52
2019-04-22T13:51:16.133Z,99702.28
2019-04-22T13:56:14.917Z,99700.69
2019-04-22T13:58:37.136Z,99698.27
2019-04-22T14:00:52.224Z,99702.31
2019-04-22T14:03:24.541Z,99700.70
2019-04-22T14:05:58.683Z,99694.39
2019-04-22T14:08:29.185Z,99686.75
2019-04-22T14:11:13.167Z,99686.05
2019-04-22T14:13:30.060Z,99690.00
2019-04-22T14:16:01.376Z,99688.48
2019-04-22T14:18:39.148Z,99684.94
2019-04-22T14:21:12.533Z,99683.94
2019-04-22T14:23:46.783Z,99683.78
2019-04-22T14:26:15.568Z,99660.11
2019-04-22T14:28:48.144Z,99680.68
2019-04-22T14:31:18.172Z,99662.11
2019-04-22T14:33:53.019Z,99662.64
2019-04-22T14:36:17.510Z,99663.83
2019-04-22T14:38:50.155Z,99659.64
2019-04-22T14:41:36.050Z,99653.69
2019-04-22T14:46:49.346Z,99641.88
2019-04-22T14:49:21.542Z,99643.69
2019-04-22T14:51:53.351Z,99639.27
2019-04-22T14:54:13.842Z,99638.95
2019-04-22T14:56:34.196Z,99636.56
2019-04-22T14:59:04.990Z,99630.38
2019-04-22T15:01:41.416Z,99635.43
2019-04-22T15:04:11.004Z,99632.67
2019-04-22T15:06:40.156Z,99626.11
2019-04-22T15:09:10.362Z,99631.21
2019-04-22T15:11:52.549Z,99624.14
2019-04-22T15:14:11.632Z,99629.25
2019-04-22T15:17:00.770Z,99622.80
2019-04-22T15:19:31.784Z,99622.52
2019-04-22T15:22:10.452Z,99616.08
2019-04-22T15:24:40.601Z,99607.55
2019-04-22T15:27:10.562Z,99605.28
2019-04-22T15:29:39.420Z,99606.27
2019-04-22T15:32:09.351Z,99609.97
2019-04-22T15:34:39.508Z,99595.00
2019-04-22T15:37:08.475Z,99600.03
2019-04-22T15:39:41.422Z,99600.42
2019-04-22T15:42:18.350Z,99593.45
2019-04-22T15:44:44.075Z,99591.95
2019-04-22T15:47:13.239Z,99589.67
2019-04-22T15:49:42.298Z,99586.87
2019-04-22T15:52:12.393Z,99593.05
2019-04-22T15:54:41.602Z,99586.78
2019-04-22T15:57:10.827Z,99588.32
2019-04-22T15:59:57.816Z,99583.52
2019-04-22T16:02:11.671Z,99580.33
2019-04-22T16:04:41.121Z,99575.56
2019-04-22T16:07:10.833Z,99578.47
2019-04-22T16:09:39.683Z,99578.86
2019-04-22T16:12:16.274Z,99580.44
2019-04-22T16:14:43.746Z,99576.02
2019-04-22T16:17:10.477Z,99571.04
2019-04-22T16:19:39.368Z,99575.07
2019-04-22T16:22:13.445Z,99569.05
2019-04-22T16:24:47.913Z,99571.18
2019-04-22T16:27:18.645Z,99572.23
2019-04-22T16:29:47.513Z,99556.59
2019-04-22T16:32:16.281Z,99565.04
2019-04-22T16:34:45.807Z,99563.88
2019-04-22T16:37:14.804Z,99562.69
2019-04-22T16:39:48.523Z,99568.89
2019-04-22T16:42:27.886Z,99558.66
2019-04-22T16:44:49.317Z,99565.27
2019-04-22T16:47:19.563Z,99560.91
2019-04-22T16:49:49.758Z,99549.72
2019-04-22T16:52:18.455Z,99553.67
2019-04-22T16:54:47.090Z,99553.52
2019-04-22T16:57:15.911Z,99552.52
2019-04-22T16:59:44.805Z,99543.78
2019-04-22T17:02:16.706Z,99553.95
2019-04-22T17:04:50.859Z,99553.23
2019-04-22T17:07:20.571Z,99554.69
2019-04-22T17:09:50.008Z,99552.68
2019-04-22T17:12:19.583Z,99553.89
2019-04-22T17:14:55.950Z,99547.10
2019-04-22T17:17:20.211Z,99552.58
2019-04-22T17:20:07.283Z,99555.14
2019-04-22T17:22:37.619Z,99553.20
2019-04-22T17:25:08.682Z,99554.63
2019-04-22T17:27:37.563Z,99552.70
2019-04-22T17:30:08.545Z,99557.58
2019-04-22T17:32:37.764Z,99554.79
2019-04-22T17:35:08.318Z,99554.12
2019-04-22T17:37:39.124Z,99549.47
2019-04-22T17:40:24.377Z,99549.17
2019-04-22T17:43:02.065Z,99553.05
2019-04-22T17:45:57.259Z,99556.64
2019-04-22T17:48:30.565Z,99556.36
2019-04-22T17:51:10.518Z,99547.30
2019-04-22T17:53:40.282Z,99534.67
2019-04-22T17:56:08.662Z,99543.80
2019-04-22T17:58:36.381Z,99539.72
2019-04-22T18:01:21.975Z,99551.36
2019-04-22T18:03:33.839Z,99542.70
2019-04-22T18:06:03.693Z,99551.11
2019-04-22T18:08:50.754Z,99550.13
2019-04-22T18:11:30.150Z,99548.89
2019-04-22T18:13:51.618Z,99554.64
2019-04-22T18:16:25.781Z,99562.73
2019-04-22T18:18:52.857Z,99564.16
2019-04-22T18:24:21.709Z,99566.34
2019-04-22T18:27:07.202Z,99567.91
2019-04-22T18:29:33.085Z,99564.86
2019-04-22T18:31:54.512Z,99565.02
2019-04-22T18:34:25.517Z,99564.48
2019-04-22T18:36:58.943Z,99559.86
2019-04-22T18:39:52.696Z,99559.86
2019-04-22T18:42:03.148Z,99583.14
2019-04-22T18:44:35.163Z,99580.27
2019-04-22T18:47:01.276Z,99569.70
2019-04-22T18:49:40.596Z,99573.22
2019-04-22T18:52:18.068Z,99576.63
2019-04-22T18:55:02.636Z,99575.25
2019-04-22T18:57:46.525Z,99575.09
2019-04-22T19:00:09.125Z,99580.69
2019-04-22T19:02:50.820Z,99575.05
2019-04-22T19:05:26.482Z,99572.72
2019-04-22T19:08:12.414Z,99578.42
2019-04-22T19:10:46.140Z,99582.95
2019-04-22T19:13:34.853Z,99585.42
2019-04-22T19:15:53.128Z,99591.63
2019-04-22T19:18:18.715Z,99586.17
2019-04-22T19:20:42.656Z,99595.94
2019-04-22T19:23:19.373Z,99588.58
2019-04-22T19:25:42.350Z,99605.84
2019-04-22T19:28:28.082Z,99607.45
2019-04-22T19:30:59.438Z,99597.20
2019-04-22T19:33:25.093Z,99593.39
2019-04-22T19:35:51.975Z,99593.45
2019-04-22T19:38:19.146Z,99597.77
2019-04-22T19:43:33.178Z,99594.81
2019-04-22T19:46:02.000Z,99602.95
2019-04-22T19:48:43.528Z,99597.10
2019-04-22T19:51:08.869Z,99597.15
2019-04-22T19:53:40.691Z,99592.83
2019-04-22T19:56:06.119Z,99596.30
2019-04-22T19:58:37.375Z,99597.39
2019-04-22T20:01:15.072Z,99594.09
2019-04-22T20:04:06.359Z,99602.98
2019-04-22T20:06:31.558Z,99599.36
2019-04-22T20:09:01.846Z,99603.16
2019-04-22T20:11:35.333Z,99599.52
2019-04-22T20:14:07.483Z,99600.60
2019-04-22T20:16:32.435Z,99597.16
2019-04-22T20:19:12.370Z,99596.72
2019-04-22T20:21:40.608Z,99594.89
2019-04-22T20:23:59.175Z,99601.55
2019-04-22T20:26:45.422Z,99598.91
2019-04-22T20:29:13.254Z,99595.94
2019-04-22T20:31:45.318Z,99604.29
2019-04-22T20:34:17.334Z,99603.14
2019-04-22T20:37:01.480Z,99609.77
2019-04-22T20:39:10.774Z,99594.06
2019-04-22T20:41:43.268Z,99603.59
2019-04-22T20:44:28.104Z,99592.16
2019-04-22T20:46:49.116Z,99593.40
2019-04-22T20:49:29.296Z,99583.84
2019-04-22T20:52:04.810Z,99597.06
2019-04-22T20:54:22.990Z,99581.91
2019-04-22T20:56:50.937Z,99565.05
2019-04-22T20:59:25.748Z,99584.41
2019-04-22T21:01:55.148Z,99593.58
2019-04-22T21:04:19.590Z,99576.73
2019-04-22T21:06:51.522Z,99589.60
2019-04-22T21:09:27.293Z,99585.06
2019-04-22T21:11:57.789Z,99586.62
2019-04-22T21:14:27.458Z,99590.25
2019-04-22T21:17:17.335Z,99586.06
2019-04-22T21:19:58.353Z,99595.58
2019-04-22T21:22:24.241Z,99591.69
2019-04-22T21:24:49.250Z,99571.12
2019-04-22T21:27:32.502Z,99581.78
2019-04-22T21:29:48.495Z,99578.41
2019-04-22T21:32:25.176Z,99576.11
2019-04-22T21:34:59.901Z,99585.43
2019-04-22T21:37:27.992Z,99575.02
2019-04-22T21:39:46.617Z,99581.98
2019-04-22T21:42:24.568Z,99585.05
2019-04-22T21:44:49.961Z,99575.63
2019-04-22T21:47:30.083Z,99577.84
2019-04-22T21:50:08.864Z,99574.64
2019-04-22T21:52:27.835Z,99584.63
2019-04-22T21:55:00.825Z,99562.89
2019-04-22T21:57:54.682Z,99565.63
2019-04-22T22:00:29.722Z,99562.28
2019-04-22T22:02:50.308Z,99559.63
2019-04-22T22:05:08.310Z,99564.70
2019-04-22T22:07:29.027Z,99560.01
2019-04-22T22:10:16.531Z,99562.39
2019-04-22T22:12:48.868Z,99559.70
2019-04-22T22:15:13.327Z,99555.34
2019-04-22T22:17:42.959Z,99548.28
2019-04-22T22:20:13.705Z,99547.47
2019-04-22T22:22:55.111Z,99539.84
2019-04-22T22:25:21.272Z,99544.23
2019-04-22T22:27:44.793Z,99535.67
2019-04-22T22:30:36.902Z,99543.59
2019-04-22T22:32:47.468Z,99527.77
2019-04-22T22:35:20.585Z,99528.11
2019-04-22T22:37:51.757Z,99530.48
2019-04-22T22:40:07.495Z,99527.47
2019-04-22T22:42:36.953Z,99531.51
2019-04-22T22:45:10.572Z,99524.13
2019-04-22T22:47:44.572Z,99526.14
2019-04-22T22:50:20.678Z,99515.03
2019-04-22T22:52:58.978Z,99520.60
2019-04-22T22:55:21.998Z,99511.52
2019-04-22T22:57:54.124Z,99519.93
2019-04-22T23:00:19.411Z,99513.41
2019-04-22T23:03:06.988Z,99508.51
2019-04-22T23:05:23.905Z,99504.33
2019-04-22T23:08:00.775Z,99492.88
2019-04-22T23:10:25.280Z,99501.79
2019-04-22T23:13:05.320Z,99488.50
2019-04-22T23:15:25.370Z,99488.83
2019-04-22T23:17:38.934Z,99479.75
2019-04-22T23:20:09.765Z,99483.11
2019-04-22T23:23:03.852Z,99478.59
2019-04-22T23:25:53.586Z,99468.16
2019-04-22T23:28:12.552Z,99478.59
2019-04-22T23:30:51.696Z,99473.69
2019-04-22T23:33:42.508Z,99455.83
2019-04-22T23:36:27.927Z,99458.19
2019-04-22T23:39:12.199Z,99463.91
2019-04-22T23:41:48.565Z,99457.00
2019-04-22T23:44:14.373Z,99454.83
2019-04-22T23:46:45.299Z,99445.04
2019-04-22T23:49:11.792Z,99449.58
2019-04-22T23:51:55.387Z,99440.68
2019-04-22T23:54:20.431Z,99446.53
2019-04-22T23:56:43.582Z,99438.97
2019-04-22T23:59:42.769Z,99434.60
